createdAt,value
2022-07-26T00:01:19.871Z,3.30
2022-07-26T00:03:50.078Z,3.35
2022-07-26T00:06:19.070Z,3.30
2022-07-26T00:08:48.175Z,2.90
2022-07-26T00:11:16.419Z,3.22
2022-07-26T00:13:45.439Z,3.17
2022-07-26T00:16:13.573Z,2.97
2022-07-26T00:18:42.145Z,2.90
2022-07-26T00:21:11.631Z,3.05
2022-07-26T00:23:40.211Z,2.75
2022-07-26T00:26:08.591Z,3.50
2022-07-26T00:28:37.110Z,3.13
2022-07-26T00:31:05.422Z,3.25
2022-07-26T00:33:34.067Z,3.20
2022-07-26T00:36:02.637Z,3.30
2022-07-26T00:38:31.017Z,3.08
2022-07-26T00:41:00.288Z,3.13
2022-07-26T00:43:28.699Z,3.20
2022-07-26T00:45:57.777Z,3.38
2022-07-26T00:48:26.322Z,3.22
2022-07-26T00:50:55.828Z,2.88
2022-07-26T00:53:24.441Z,3.30
2022-07-26T00:55:53.897Z,3.22
2022-07-26T00:58:22.086Z,2.92
2022-07-26T01:00:50.203Z,3.08
2022-07-26T01:03:18.337Z,3.08
2022-07-26T01:05:47.285Z,3.25
2022-07-26T01:08:15.225Z,3.60
2022-07-26T01:10:46.174Z,2.95
2022-07-26T01:13:22.735Z,3.42
2022-07-26T01:15:50.862Z,3.42
2022-07-26T01:18:18.767Z,3.42
2022-07-26T01:20:48.534Z,3.35
2022-07-26T01:23:17.205Z,3.38
2022-07-26T01:25:46.024Z,3.38
2022-07-26T01:28:19.792Z,2.95
2022-07-26T01:33:17.561Z,3.00
2022-07-26T01:35:45.611Z,3.72
2022-07-26T01:38:14.389Z,3.47
2022-07-26T01:40:42.867Z,3.67
2022-07-26T01:43:11.008Z,3.55
2022-07-26T01:45:39.157Z,3.72
2022-07-26T01:48:07.387Z,3.50
2022-07-26T01:50:37.507Z,4.05
2022-07-26T01:53:06.453Z,3.70
2022-07-26T01:55:35.912Z,3.80
2022-07-26T01:58:07.534Z,3.42
2022-07-26T02:00:35.704Z,3.42
2022-07-26T02:03:03.971Z,3.72
2022-07-26T02:05:32.430Z,3.53
2022-07-26T02:08:00.715Z,3.70
2022-07-26T02:10:48.940Z,4.03
2022-07-26T02:13:17.181Z,3.70
2022-07-26T02:15:45.733Z,3.70
2022-07-26T02:18:14.037Z,4.13
2022-07-26T02:20:42.385Z,4.50
2022-07-26T02:23:10.434Z,4.25
2022-07-26T02:25:39.027Z,4.03
2022-07-26T02:28:07.096Z,3.90
2022-07-26T02:30:35.062Z,4.28
2022-07-26T02:33:03.921Z,4.20
2022-07-26T02:35:32.213Z,4.15
2022-07-26T02:38:06.882Z,3.72
2022-07-26T02:40:36.734Z,4.00
2022-07-26T02:43:07.406Z,3.65
2022-07-26T02:45:36.918Z,4.13
2022-07-26T02:48:05.262Z,4.45
2022-07-26T02:50:33.692Z,4.25
2022-07-26T02:53:01.970Z,3.78
2022-07-26T02:55:30.642Z,3.70
2022-07-26T02:57:58.591Z,4.45
2022-07-26T03:00:27.684Z,4.28
2022-07-26T03:02:55.940Z,4.30
2022-07-26T03:05:24.019Z,4.78
2022-07-26T03:07:52.375Z,4.20
2022-07-26T03:10:21.069Z,4.30
2022-07-26T03:12:49.076Z,4.43
2022-07-26T03:15:17.557Z,4.85
2022-07-26T03:17:45.480Z,4.30
2022-07-26T03:20:13.672Z,4.60
2022-07-26T03:22:42.249Z,4.32
2022-07-26T03:25:10.615Z,3.65
2022-07-26T03:27:38.804Z,4.25
2022-07-26T03:30:07.955Z,4.32
2022-07-26T03:32:36.005Z,4.43
2022-07-26T03:35:05.376Z,4.68
2022-07-26T03:37:46.066Z,4.20
2022-07-26T03:42:48.319Z,3.70
2022-07-26T03:45:16.680Z,4.50
2022-07-26T03:47:46.567Z,4.22
2022-07-26T03:50:14.772Z,4.75
2022-07-26T03:52:43.508Z,4.32
2022-07-26T03:55:30.318Z,4.35
2022-07-26T03:57:58.869Z,4.30
2022-07-26T04:00:27.244Z,4.40
2022-07-26T04:02:55.547Z,4.97
2022-07-26T04:05:26.035Z,4.22
2022-07-26T04:07:55.912Z,4.03
2022-07-26T04:10:24.350Z,4.40
2022-07-26T04:12:52.461Z,4.47
2022-07-26T04:15:21.602Z,4.43
2022-07-26T04:17:50.048Z,4.10
2022-07-26T04:20:18.484Z,3.83
2022-07-26T04:22:46.502Z,4.15
2022-07-26T04:25:15.014Z,3.78
2022-07-26T04:27:43.192Z,3.63
2022-07-26T04:30:15.210Z,3.58
2022-07-26T04:32:45.843Z,3.67
2022-07-26T04:35:16.088Z,4.05
2022-07-26T04:37:45.751Z,3.25
2022-07-26T04:40:21.470Z,3.08
2022-07-26T04:42:51.691Z,3.60
2022-07-26T04:45:20.783Z,3.30
2022-07-26T04:47:50.779Z,3.50
2022-07-26T04:50:22.029Z,3.35
2022-07-26T04:52:51.930Z,3.08
2022-07-26T04:55:20.705Z,3.17
2022-07-26T04:57:50.255Z,3.90
2022-07-26T05:00:24.386Z,3.22
2022-07-26T05:03:00.254Z,3.88
2022-07-26T05:05:32.958Z,2.70
2022-07-26T05:08:03.865Z,3.63
2022-07-26T05:10:36.855Z,2.97
2022-07-26T05:13:06.568Z,3.10
2022-07-26T05:15:37.211Z,3.60
2022-07-26T05:18:10.603Z,2.72
2022-07-26T05:20:41.124Z,3.00
2022-07-26T05:23:09.772Z,3.10
2022-07-26T05:25:38.909Z,3.25
2022-07-26T05:28:07.037Z,3.22
2022-07-26T05:30:35.210Z,3.72
2022-07-26T05:33:03.577Z,3.03
2022-07-26T05:35:31.698Z,2.75
2022-07-26T05:38:00.110Z,2.90
2022-07-26T05:40:28.265Z,3.05
2022-07-26T05:42:56.506Z,3.10
2022-07-26T05:45:24.656Z,2.80
2022-07-26T05:47:53.831Z,3.08
2022-07-26T05:50:22.126Z,2.53
2022-07-26T05:52:50.224Z,2.90
2022-07-26T05:55:18.242Z,2.83
2022-07-26T05:57:49.515Z,3.08
2022-07-26T06:00:18.408Z,2.95
2022-07-26T06:02:46.608Z,2.60
2022-07-26T06:05:16.111Z,2.97
2022-07-26T06:07:44.387Z,2.60
2022-07-26T06:10:12.537Z,2.40
2022-07-26T06:12:41.444Z,2.78
2022-07-26T06:15:14.997Z,2.50
2022-07-26T06:17:44.269Z,2.53
2022-07-26T06:20:12.386Z,2.60
2022-07-26T06:22:40.293Z,2.55
2022-07-26T06:25:09.472Z,2.20
2022-07-26T06:27:37.640Z,2.40
2022-07-26T06:30:07.493Z,2.28
2022-07-26T06:32:35.825Z,2.40
2022-07-26T06:35:04.176Z,2.40
2022-07-26T06:37:32.148Z,2.40
2022-07-26T06:40:00.565Z,2.65
2022-07-26T06:42:28.530Z,2.65
2022-07-26T06:44:56.569Z,2.30
2022-07-26T06:47:24.830Z,2.78
2022-07-26T06:49:53.026Z,2.60
2022-07-26T06:52:21.052Z,2.92
2022-07-26T06:54:50.004Z,2.50
2022-07-26T06:57:18.774Z,2.58
2022-07-26T06:59:46.750Z,2.20
2022-07-26T07:02:14.864Z,2.60
2022-07-26T07:04:43.441Z,2.80
2022-07-26T07:07:11.882Z,2.70
2022-07-26T07:09:40.722Z,2.53
2022-07-26T07:12:10.743Z,2.42
2022-07-26T07:14:40.267Z,2.63
2022-07-26T07:17:12.066Z,2.83
2022-07-26T07:19:42.299Z,2.50
2022-07-26T07:22:12.670Z,2.67
2022-07-26T07:24:43.165Z,2.30
2022-07-26T07:27:11.462Z,2.60
2022-07-26T07:29:41.476Z,2.80
2022-07-26T07:32:17.981Z,2.35
2022-07-26T07:34:48.647Z,2.72
2022-07-26T07:37:18.403Z,2.42
2022-07-26T07:39:50.697Z,2.35
2022-07-26T07:42:20.078Z,2.50
2022-07-26T07:44:50.417Z,2.13
2022-07-26T07:47:18.593Z,2.53
2022-07-26T07:49:48.234Z,2.40
2022-07-26T07:52:16.891Z,2.40
2022-07-26T07:54:46.625Z,2.40
2022-07-26T07:57:14.856Z,2.30
2022-07-26T07:59:43.535Z,2.65
2022-07-26T08:02:12.986Z,2.20
2022-07-26T08:04:41.700Z,2.63
2022-07-26T08:07:11.053Z,2.22
2022-07-26T08:09:43.050Z,2.05
2022-07-26T08:12:11.615Z,2.25
2022-07-26T08:14:40.929Z,2.20
2022-07-26T08:17:09.863Z,2.90
2022-07-26T08:19:42.329Z,2.20
2022-07-26T08:22:11.586Z,2.33
2022-07-26T08:24:40.761Z,2.38
2022-07-26T08:27:08.867Z,2.33
2022-07-26T08:29:37.091Z,2.45
2022-07-26T08:32:06.608Z,2.47
2022-07-26T08:34:35.091Z,1.90
2022-07-26T08:37:18.798Z,2.35
2022-07-26T08:39:48.846Z,2.13
2022-07-26T08:42:22.446Z,2.15
2022-07-26T08:44:51.970Z,2.30
2022-07-26T08:47:38.096Z,2.50
2022-07-26T08:50:09.061Z,2.00
2022-07-26T08:52:41.637Z,2.25
2022-07-26T08:55:11.352Z,2.42
2022-07-26T08:57:39.609Z,2.22
2022-07-26T09:00:22.206Z,2.20
2022-07-26T09:02:50.242Z,2.08
2022-07-26T09:05:35.908Z,2.15
2022-07-26T09:08:29.833Z,1.98
2022-07-26T09:10:58.399Z,2.00
2022-07-26T09:13:26.330Z,2.17
2022-07-26T09:16:13.333Z,2.03
2022-07-26T09:18:41.801Z,2.03
2022-07-26T09:21:36.325Z,2.28
2022-07-26T09:24:04.835Z,2.10
2022-07-26T09:26:33.300Z,2.30
2022-07-26T09:29:12.563Z,2.17
2022-07-26T09:31:41.918Z,2.20
2022-07-26T09:34:10.385Z,2.47
2022-07-26T09:36:53.767Z,2.20
2022-07-26T09:39:32.758Z,2.22
2022-07-26T09:44:59.123Z,2.40
2022-07-26T09:47:41.864Z,1.80
2022-07-26T09:50:20.280Z,2.17
2022-07-26T09:53:13.446Z,1.90
2022-07-26T09:55:47.439Z,2.15
2022-07-26T09:58:17.566Z,2.30
2022-07-26T10:00:45.967Z,2.08
2022-07-26T10:03:14.520Z,2.05
2022-07-26T10:05:43.388Z,2.10
2022-07-26T10:08:12.750Z,2.13
2022-07-26T10:10:56.104Z,2.42
2022-07-26T10:13:26.787Z,2.00
2022-07-26T10:15:56.996Z,1.90
2022-07-26T10:18:39.052Z,1.90
2022-07-26T10:21:20.737Z,2.13
2022-07-26T10:23:53.724Z,2.22
2022-07-26T10:26:35.047Z,2.30
2022-07-26T10:29:25.862Z,2.20
2022-07-26T10:32:03.188Z,2.60
2022-07-26T10:34:38.511Z,2.40
2022-07-26T10:37:11.267Z,2.22
2022-07-26T10:39:40.051Z,2.47
2022-07-26T10:42:11.706Z,2.70
2022-07-26T10:44:45.076Z,2.33
2022-07-26T10:47:18.765Z,2.53
2022-07-26T10:49:59.523Z,2.20
2022-07-26T10:52:29.757Z,2.40
2022-07-26T10:55:00.648Z,2.38
2022-07-26T11:00:09.823Z,2.45
2022-07-26T11:02:38.756Z,2.47
2022-07-26T11:05:16.622Z,2.83
2022-07-26T11:07:53.873Z,2.60
2022-07-26T11:10:31.854Z,2.70
2022-07-26T11:13:17.622Z,2.35
2022-07-26T11:15:52.388Z,2.58
2022-07-26T11:18:29.328Z,2.67
2022-07-26T11:21:08.996Z,2.60
2022-07-26T11:23:39.614Z,2.60
2022-07-26T11:26:23.606Z,2.42
2022-07-26T11:28:58.904Z,2.92
2022-07-26T11:31:48.254Z,2.58
2022-07-26T11:34:23.901Z,2.80
2022-07-26T11:36:56.235Z,2.75
2022-07-26T11:39:34.250Z,2.67
2022-07-26T11:42:08.196Z,2.15
2022-07-26T11:44:37.893Z,2.90
2022-07-26T11:47:24.479Z,3.00
2022-07-26T11:50:14.019Z,2.72
2022-07-26T11:52:43.473Z,2.70
2022-07-26T11:55:11.687Z,2.70
2022-07-26T11:57:39.645Z,2.80
2022-07-26T12:00:08.962Z,3.05
2022-07-26T12:02:39.778Z,3.00
2022-07-26T12:05:25.939Z,3.20
2022-07-26T12:08:05.522Z,3.22
2022-07-26T12:10:33.838Z,2.83
2022-07-26T12:13:14.428Z,2.88
2022-07-26T12:15:52.776Z,2.88
2022-07-26T12:18:30.105Z,3.00
2022-07-26T12:21:09.638Z,3.00
2022-07-26T12:23:46.383Z,2.92
2022-07-26T12:26:28.613Z,2.85
2022-07-26T12:29:00.358Z,2.80
2022-07-26T12:31:34.453Z,3.45
2022-07-26T12:34:02.851Z,3.08
2022-07-26T12:36:34.790Z,3.30
2022-07-26T12:39:03.168Z,3.47
2022-07-26T12:41:39.464Z,3.65
2022-07-26T12:44:12.372Z,3.30
2022-07-26T12:46:41.190Z,4.22
2022-07-26T12:49:09.726Z,3.25
2022-07-26T12:51:38.448Z,3.22
2022-07-26T12:54:06.817Z,3.83
2022-07-26T12:56:36.571Z,3.30
2022-07-26T12:59:04.857Z,3.45
2022-07-26T13:01:33.671Z,3.92
2022-07-26T13:04:02.417Z,3.92
2022-07-26T13:06:33.048Z,4.70
2022-07-26T13:09:01.261Z,4.57
2022-07-26T13:11:29.549Z,4.38
2022-07-26T13:13:57.985Z,4.10
2022-07-26T13:16:26.354Z,3.85
2022-07-26T13:18:56.102Z,4.18
2022-07-26T13:21:24.420Z,4.13
2022-07-26T13:23:52.584Z,4.80
2022-07-26T13:26:22.409Z,5.00
2022-07-26T13:28:52.532Z,3.85
2022-07-26T13:31:20.669Z,4.28
2022-07-26T13:33:49.037Z,4.03
2022-07-26T13:36:17.419Z,4.53
2022-07-26T13:38:45.447Z,4.47
2022-07-26T13:41:14.085Z,5.22
2022-07-26T13:43:42.417Z,5.60
2022-07-26T13:46:10.770Z,4.85
2022-07-26T13:48:52.495Z,5.07
2022-07-26T13:51:49.180Z,5.07
2022-07-26T13:54:18.875Z,5.00
2022-07-26T13:56:47.564Z,5.72
2022-07-26T13:59:16.841Z,5.35
2022-07-26T14:01:45.374Z,5.38
2022-07-26T14:04:14.124Z,6.22
2022-07-26T14:06:43.915Z,5.50
2022-07-26T14:09:14.039Z,6.38
2022-07-26T14:11:43.408Z,5.90
2022-07-26T14:14:12.509Z,5.88
2022-07-26T14:16:41.732Z,5.72
2022-07-26T14:19:10.045Z,5.15
2022-07-26T14:21:58.618Z,5.40
2022-07-26T14:24:28.208Z,5.30
2022-07-26T14:26:59.579Z,4.65
2022-07-26T14:29:29.535Z,4.30
2022-07-26T14:31:57.762Z,5.05
2022-07-26T14:34:26.100Z,4.38
2022-07-26T14:36:54.166Z,4.75
2022-07-26T14:39:22.249Z,4.40
2022-07-26T14:41:50.674Z,4.10
2022-07-26T14:44:18.746Z,4.57
2022-07-26T14:46:46.881Z,4.65
2022-07-26T14:49:14.989Z,4.90
2022-07-26T14:51:43.422Z,4.70
2022-07-26T14:54:16.318Z,4.63
2022-07-26T14:56:45.083Z,5.10
2022-07-26T14:59:13.845Z,5.15
2022-07-26T15:01:42.112Z,5.30
2022-07-26T15:04:11.075Z,5.80
2022-07-26T15:06:39.515Z,4.90
2022-07-26T15:09:07.690Z,4.57
2022-07-26T15:11:35.884Z,5.88
2022-07-26T15:14:06.242Z,5.43
2022-07-26T15:16:34.918Z,7.40
2022-07-26T15:19:03.402Z,5.40
2022-07-26T15:21:31.402Z,6.72
2022-07-26T15:23:59.657Z,6.90
2022-07-26T15:26:27.990Z,7.35
2022-07-26T15:28:56.205Z,7.68
2022-07-26T15:31:37.050Z,7.53
2022-07-26T15:34:09.154Z,7.50
2022-07-26T15:36:37.731Z,8.65
2022-07-26T15:39:16.698Z,8.57
2022-07-26T15:41:48.558Z,8.73
2022-07-26T15:44:21.695Z,8.73
2022-07-26T15:46:52.825Z,9.80
2022-07-26T15:49:20.964Z,11.63
2022-07-26T15:51:50.201Z,11.00
2022-07-26T15:54:20.840Z,10.43
2022-07-26T15:56:50.318Z,11.07
2022-07-26T15:59:20.941Z,9.30
2022-07-26T16:01:49.368Z,9.38
2022-07-26T16:04:17.602Z,9.70
2022-07-26T16:06:46.006Z,9.95
2022-07-26T16:09:20.281Z,7.85
2022-07-26T16:11:50.582Z,7.97
2022-07-26T16:14:18.805Z,6.53
2022-07-26T16:16:47.584Z,7.25
2022-07-26T16:19:15.997Z,7.93
2022-07-26T16:21:44.729Z,6.00
2022-07-26T16:24:13.309Z,7.82
2022-07-26T16:26:43.115Z,8.98
2022-07-26T16:29:11.705Z,8.57
2022-07-26T16:31:43.194Z,8.50
2022-07-26T16:34:11.849Z,8.65
2022-07-26T16:36:40.729Z,8.60
2022-07-26T16:39:09.292Z,9.55
2022-07-26T16:41:37.724Z,10.05
2022-07-26T16:44:06.241Z,11.65
2022-07-26T16:46:34.752Z,10.48
2022-07-26T16:49:03.042Z,10.18
2022-07-26T16:51:33.235Z,11.05
2022-07-26T16:54:01.475Z,12.18
2022-07-26T16:56:29.854Z,12.32
2022-07-26T16:58:58.287Z,12.40
2022-07-26T17:01:26.753Z,13.10
2022-07-26T17:03:55.081Z,12.68
2022-07-26T17:06:23.267Z,11.05
2022-07-26T17:08:51.387Z,14.95
2022-07-26T17:11:19.538Z,14.45
2022-07-26T17:13:47.680Z,15.52
2022-07-26T17:16:16.008Z,16.67
2022-07-26T17:18:55.193Z,16.42
2022-07-26T17:21:23.991Z,19.63
2022-07-26T17:23:52.528Z,19.75
2022-07-26T17:26:20.809Z,19.65
2022-07-26T17:28:49.014Z,22.17
2022-07-26T17:31:17.296Z,21.38
2022-07-26T17:33:45.422Z,22.48
2022-07-26T17:36:31.058Z,21.65
2022-07-26T17:39:02.538Z,20.63
2022-07-26T17:44:03.417Z,22.88
2022-07-26T17:46:35.056Z,25.42
2022-07-26T17:51:31.482Z,23.33
2022-07-26T17:53:59.992Z,25.33
2022-07-26T17:56:28.374Z,26.73
2022-07-26T17:58:56.798Z,25.83
2022-07-26T18:01:25.985Z,20.55
2022-07-26T18:03:54.144Z,17.35
2022-07-26T18:06:22.512Z,15.18
2022-07-26T18:08:51.042Z,12.00
2022-07-26T18:11:19.149Z,16.40
2022-07-26T18:13:47.210Z,10.20
2022-07-26T18:16:15.675Z,11.68
2022-07-26T18:18:44.003Z,12.13
2022-07-26T18:21:12.294Z,11.32
2022-07-26T18:23:49.700Z,12.35
2022-07-26T18:26:28.651Z,11.02
2022-07-26T18:28:56.849Z,10.90
2022-07-26T18:31:25.189Z,12.23
2022-07-26T18:33:53.567Z,13.60
2022-07-26T18:36:21.750Z,11.27
2022-07-26T18:38:49.937Z,11.65
2022-07-26T18:41:18.494Z,6.88
2022-07-26T18:43:46.753Z,11.00
2022-07-26T18:46:14.794Z,10.57
2022-07-26T18:48:45.468Z,11.18
2022-07-26T18:51:13.875Z,9.10
2022-07-26T18:53:41.887Z,9.07
2022-07-26T18:56:10.383Z,10.55
2022-07-26T18:58:38.794Z,11.43
2022-07-26T19:01:08.005Z,10.43
2022-07-26T19:03:36.673Z,10.93
2022-07-26T19:06:06.129Z,7.15
2022-07-26T19:08:34.242Z,6.72
2022-07-26T19:11:02.528Z,6.03
2022-07-26T19:13:31.943Z,6.47
2022-07-26T19:15:59.964Z,8.20
2022-07-26T19:18:28.485Z,11.05
2022-07-26T19:20:56.557Z,12.38
2022-07-26T19:23:24.755Z,12.18
2022-07-26T19:25:53.355Z,14.43
2022-07-26T19:28:22.063Z,11.15
2022-07-26T19:30:50.631Z,6.38
2022-07-26T19:33:19.141Z,6.88
2022-07-26T19:35:47.597Z,6.82
2022-07-26T19:38:15.991Z,19.50
2022-07-26T19:40:45.189Z,12.98
2022-07-26T19:43:13.744Z,14.60
2022-07-26T19:45:41.917Z,10.23
2022-07-26T19:48:10.463Z,8.70
2022-07-26T19:50:38.681Z,9.20
2022-07-26T19:53:08.098Z,8.13
2022-07-26T19:55:38.569Z,6.85
2022-07-26T19:58:06.804Z,5.78
2022-07-26T20:00:35.074Z,5.95
2022-07-26T20:03:03.588Z,5.18
2022-07-26T20:05:31.969Z,5.15
2022-07-26T20:08:02.184Z,4.85
2022-07-26T20:10:32.371Z,4.47
2022-07-26T20:13:00.729Z,11.13
2022-07-26T20:15:28.992Z,6.55
2022-07-26T20:17:57.248Z,4.30
2022-07-26T20:20:25.878Z,9.63
2022-07-26T20:22:53.910Z,5.72
2022-07-26T20:25:22.417Z,5.47
2022-07-26T20:27:51.579Z,6.07
2022-07-26T20:30:19.998Z,5.03
2022-07-26T20:32:48.189Z,4.60
2022-07-26T20:35:16.279Z,5.50
2022-07-26T20:37:44.380Z,4.90
2022-07-26T20:40:14.968Z,5.28
2022-07-26T20:42:47.495Z,4.20
2022-07-26T20:45:18.970Z,3.80
2022-07-26T20:47:46.888Z,4.22
2022-07-26T20:50:14.955Z,5.15
2022-07-26T20:52:49.069Z,4.68
2022-07-26T20:55:19.088Z,9.55
2022-07-26T20:57:47.936Z,8.27
2022-07-26T21:00:17.864Z,8.82
2022-07-26T21:02:47.105Z,5.53
2022-07-26T21:05:15.584Z,5.65
2022-07-26T21:07:53.902Z,6.78
2022-07-26T21:10:29.550Z,6.57
2022-07-26T21:13:00.499Z,5.30
2022-07-26T21:15:32.279Z,19.05
2022-07-26T21:20:29.536Z,7.57
2022-07-26T21:23:12.921Z,10.50
2022-07-26T21:25:41.684Z,8.02
2022-07-26T21:28:10.029Z,7.97
2022-07-26T21:30:38.372Z,7.18
2022-07-26T21:33:06.683Z,9.05
2022-07-26T21:35:34.998Z,7.45
2022-07-26T21:38:03.024Z,6.13
2022-07-26T21:40:32.499Z,6.70
2022-07-26T21:43:00.908Z,6.85
2022-07-26T21:45:29.301Z,7.70
2022-07-26T21:47:57.604Z,6.95
2022-07-26T21:50:25.882Z,7.80
2022-07-26T21:52:54.014Z,14.15
2022-07-26T21:55:22.281Z,7.82
2022-07-26T21:57:50.498Z,7.20
2022-07-26T22:00:19.105Z,8.23
2022-07-26T22:02:47.244Z,10.48
2022-07-26T22:05:34.187Z,6.60
2022-07-26T22:08:02.977Z,8.02
2022-07-26T22:10:33.611Z,6.95
2022-07-26T22:13:04.372Z,8.63
2022-07-26T22:15:33.994Z,9.80
2022-07-26T22:18:03.337Z,7.00
2022-07-26T22:20:33.377Z,8.63
2022-07-26T22:23:05.188Z,10.55
2022-07-26T22:25:34.988Z,8.07
2022-07-26T22:28:04.938Z,7.85
2022-07-26T22:30:34.398Z,9.70
2022-07-26T22:33:05.274Z,10.25
2022-07-26T22:35:36.856Z,10.48
2022-07-26T22:38:09.170Z,6.95
2022-07-26T22:40:38.985Z,5.70
2022-07-26T22:43:07.597Z,5.95
2022-07-26T22:45:35.965Z,6.18
2022-07-26T22:48:05.473Z,6.57
2022-07-26T22:50:34.004Z,6.63
2022-07-26T22:53:02.137Z,7.25
2022-07-26T22:55:30.756Z,7.80
2022-07-26T22:57:59.085Z,6.82
2022-07-26T23:00:27.503Z,7.65
2022-07-26T23:02:56.007Z,6.28
2022-07-26T23:05:37.434Z,7.22
2022-07-26T23:08:44.211Z,8.05
2022-07-26T23:11:00.880Z,8.95
2022-07-26T23:13:29.004Z,8.68
2022-07-26T23:16:00.805Z,8.45
2022-07-26T23:18:31.270Z,7.88
2022-07-26T23:20:59.769Z,9.15
2022-07-26T23:23:29.382Z,7.88
2022-07-26T23:25:59.759Z,7.95
2022-07-26T23:28:37.565Z,7.30
2022-07-26T23:31:09.361Z,7.10
2022-07-26T23:33:51.977Z,6.60
2022-07-26T23:36:29.054Z,6.78
2022-07-26T23:38:58.802Z,6.35
2022-07-26T23:41:28.673Z,7.18
2022-07-26T23:43:57.389Z,6.65
2022-07-26T23:46:25.980Z,7.20
2022-07-26T23:48:55.589Z,6.13
2022-07-26T23:51:24.427Z,6.95
2022-07-26T23:53:53.287Z,7.10
2022-07-26T23:56:21.316Z,6.43
2022-07-26T23:58:49.714Z,6.82
